createdAt,value
2019-06-11T00:02:11.525Z,3.33
2019-06-11T00:04:24.356Z,3.07
2019-06-11T00:06:54.338Z,3.73
2019-06-11T00:09:23.729Z,3.00
2019-06-11T00:11:52.599Z,3.23
2019-06-11T00:14:23.049Z,3.13
2019-06-11T00:16:53.633Z,3.00
2019-06-11T00:19:22.961Z,3.03
2019-06-11T00:21:52.482Z,4.03
2019-06-11T00:24:22.586Z,3.37
2019-06-11T00:26:53.044Z,3.13
2019-06-11T00:29:22.891Z,3.40
2019-06-11T00:31:53.220Z,3.70
2019-06-11T00:34:22.922Z,3.27
2019-06-11T00:36:52.774Z,3.37
2019-06-11T00:39:22.446Z,3.13
2019-06-11T00:41:52.765Z,3.77
2019-06-11T00:44:23.253Z,3.63
2019-06-11T00:46:53.326Z,4.30
2019-06-11T00:49:23.231Z,3.33
2019-06-11T00:51:52.304Z,3.83
2019-06-11T00:54:23.156Z,4.63
2019-06-11T00:56:52.140Z,4.03
2019-06-11T00:59:23.271Z,3.90
2019-06-11T01:01:52.691Z,3.97
2019-06-11T01:04:23.208Z,3.77
2019-06-11T01:06:52.842Z,4.70
2019-06-11T01:09:23.590Z,4.13
2019-06-11T01:11:52.987Z,5.93
2019-06-11T01:14:23.942Z,4.87
2019-06-11T01:16:52.947Z,4.53
2019-06-11T01:19:23.361Z,4.30
2019-06-11T01:21:52.383Z,4.97
2019-06-11T01:24:23.069Z,5.60
2019-06-11T01:26:52.067Z,5.57
2019-06-11T01:29:22.835Z,5.47
2019-06-11T01:31:53.199Z,5.53
2019-06-11T01:34:22.416Z,5.57
2019-06-11T01:36:52.430Z,5.20
2019-06-11T01:39:22.249Z,5.40
2019-06-11T01:41:53.161Z,5.57
2019-06-11T01:44:23.093Z,5.23
2019-06-11T01:46:52.812Z,5.60
2019-06-11T01:49:22.290Z,4.50
2019-06-11T01:51:52.855Z,5.57
2019-06-11T01:54:22.447Z,4.93
2019-06-11T01:56:52.481Z,5.80
2019-06-11T01:59:23.232Z,5.70
2019-06-11T02:01:52.321Z,6.30
2019-06-11T02:04:22.841Z,6.20
2019-06-11T02:06:53.251Z,5.73
2019-06-11T02:09:22.834Z,5.73
2019-06-11T02:11:52.177Z,5.10
2019-06-11T02:14:22.729Z,5.30
2019-06-11T02:16:53.278Z,6.07
2019-06-11T02:19:24.265Z,4.90
2019-06-11T02:21:52.489Z,5.07
2019-06-11T02:24:23.222Z,5.27
2019-06-11T02:26:52.761Z,5.00
2019-06-11T02:29:22.255Z,5.67
2019-06-11T02:31:53.782Z,5.40
2019-06-11T02:34:47.434Z,5.30
2019-06-11T02:36:52.575Z,4.97
2019-06-11T02:39:27.120Z,5.13
2019-06-11T02:41:52.220Z,5.90
2019-06-11T02:44:27.807Z,5.67
2019-06-11T02:46:51.799Z,5.10
2019-06-11T02:49:26.786Z,5.17
2019-06-11T02:51:52.323Z,4.63
2019-06-11T02:54:28.042Z,5.50
2019-06-11T02:56:52.495Z,5.30
2019-06-11T02:59:28.473Z,6.07
2019-06-11T03:01:51.656Z,5.70
2019-06-11T03:04:46.997Z,5.70
2019-06-11T03:06:53.078Z,5.87
2019-06-11T03:09:29.267Z,5.80
2019-06-11T03:11:54.019Z,5.80
2019-06-11T03:14:30.446Z,6.50
2019-06-11T03:16:56.111Z,5.63
2019-06-11T03:19:33.602Z,5.27
2019-06-11T03:21:56.114Z,4.90
2019-06-11T03:24:28.932Z,5.30
2019-06-11T03:26:55.387Z,5.73
2019-06-11T03:29:27.867Z,5.67
2019-06-11T03:35:15.332Z,4.83
2019-06-11T03:37:27.745Z,4.47
2019-06-11T03:39:47.501Z,4.13
2019-06-11T03:41:57.178Z,6.07
2019-06-11T03:44:30.709Z,5.13
2019-06-11T03:46:56.267Z,4.40
2019-06-11T03:49:31.464Z,4.23
2019-06-11T03:51:55.365Z,3.70
2019-06-11T03:54:29.249Z,3.50
2019-06-11T03:56:54.417Z,4.37
2019-06-11T03:59:28.813Z,4.17
2019-06-11T04:01:53.636Z,4.53
2019-06-11T04:04:28.505Z,3.90
2019-06-11T04:07:09.607Z,4.33
2019-06-11T04:09:29.294Z,3.97
2019-06-11T04:11:53.499Z,3.97
2019-06-11T04:14:25.733Z,3.80
2019-06-11T04:17:11.144Z,4.23
2019-06-11T04:19:27.549Z,4.17
2019-06-11T04:21:53.431Z,3.63
2019-06-11T04:24:28.755Z,4.63
2019-06-11T04:26:52.473Z,3.83
2019-06-11T04:29:27.510Z,4.83
2019-06-11T04:31:51.884Z,5.20
2019-06-11T04:34:30.157Z,4.40
2019-06-11T04:37:04.688Z,4.20
2019-06-11T04:39:26.400Z,4.63
2019-06-11T04:41:52.054Z,4.70
2019-06-11T04:44:25.560Z,4.70
2019-06-11T04:46:51.628Z,4.47
2019-06-11T04:49:26.642Z,4.60
2019-06-11T04:51:51.465Z,5.17
2019-06-11T04:54:25.390Z,4.57
2019-06-11T04:56:52.579Z,5.30
2019-06-11T04:59:28.424Z,5.10
2019-06-11T05:06:53.969Z,6.63
2019-06-11T05:09:28.911Z,5.73
2019-06-11T05:11:53.149Z,6.40
2019-06-11T05:14:33.748Z,5.87
2019-06-11T05:16:52.677Z,5.97
2019-06-11T05:19:28.614Z,6.53
2019-06-11T05:21:51.701Z,5.53
2019-06-11T05:24:25.872Z,4.90
2019-06-11T05:26:51.325Z,5.57
2019-06-11T05:29:25.107Z,5.77
2019-06-11T05:31:51.911Z,5.03
2019-06-11T05:34:24.015Z,5.30
2019-06-11T05:36:51.798Z,5.67
2019-06-11T05:39:24.058Z,5.70
2019-06-11T05:41:50.996Z,5.10
2019-06-11T05:47:55.169Z,5.50
2019-06-11T05:50:26.028Z,4.73
2019-06-11T05:52:55.748Z,5.63
2019-06-11T05:55:25.421Z,4.77
2019-06-11T05:57:54.414Z,4.87
2019-06-11T06:00:24.049Z,4.77
2019-06-11T06:02:52.819Z,5.20
2019-06-11T06:05:22.885Z,4.80
2019-06-11T06:07:51.803Z,5.37
2019-06-11T06:10:22.096Z,4.07
2019-06-11T06:12:51.415Z,4.10
2019-06-11T06:15:22.054Z,4.40
2019-06-11T06:17:50.740Z,4.90
2019-06-11T06:20:19.983Z,5.20
2019-06-11T06:22:50.119Z,5.00
2019-06-11T06:25:22.304Z,5.30
2019-06-11T06:27:51.174Z,5.50
2019-06-11T06:30:21.183Z,5.23
2019-06-11T06:32:51.755Z,6.00
2019-06-11T06:35:20.802Z,5.50
2019-06-11T06:37:50.721Z,5.23
2019-06-11T06:40:20.861Z,5.77
2019-06-11T06:42:51.098Z,5.10
2019-06-11T06:45:20.515Z,4.03
2019-06-11T06:47:50.302Z,4.60
2019-06-11T06:50:22.063Z,5.30
2019-06-11T06:52:51.577Z,4.00
2019-06-11T06:55:20.757Z,3.50
2019-06-11T06:57:50.915Z,4.67
2019-06-11T07:00:20.742Z,4.37
2019-06-11T07:02:51.058Z,4.67
2019-06-11T07:05:20.684Z,3.57
2019-06-11T07:07:51.440Z,3.47
2019-06-11T07:10:20.396Z,4.03
2019-06-11T07:12:50.635Z,4.20
2019-06-11T07:15:21.055Z,4.50
2019-06-11T07:17:50.855Z,3.87
2019-06-11T07:20:21.351Z,3.33
2019-06-11T07:22:51.022Z,3.30
2019-06-11T07:25:21.110Z,2.57
2019-06-11T07:27:51.549Z,2.67
2019-06-11T07:30:21.621Z,2.70
2019-06-11T07:32:51.750Z,2.73
2019-06-11T07:35:20.634Z,3.00
2019-06-11T07:37:50.792Z,2.30
2019-06-11T07:40:22.341Z,2.60
2019-06-11T07:42:50.998Z,4.23
2019-06-11T07:45:21.300Z,2.57
2019-06-11T07:47:51.711Z,3.00
2019-06-11T07:50:20.938Z,4.23
2019-06-11T07:52:51.746Z,3.50
2019-06-11T07:55:21.288Z,3.27
2019-06-11T07:57:53.873Z,2.63
2019-06-11T08:00:21.986Z,3.20
2019-06-11T08:02:52.363Z,2.80
2019-06-11T08:05:21.430Z,2.97
2019-06-11T08:08:00.139Z,3.27
2019-06-11T08:10:28.961Z,3.50
2019-06-11T08:13:01.401Z,3.13
2019-06-11T08:15:22.900Z,3.90
2019-06-11T08:17:57.663Z,4.10
2019-06-11T08:20:55.829Z,3.27
2019-06-11T08:23:03.015Z,2.87
2019-06-11T08:25:25.084Z,2.87
2019-06-11T08:28:06.553Z,3.03
2019-06-11T08:30:23.944Z,2.70
2019-06-11T08:32:52.656Z,2.70
2019-06-11T08:35:21.428Z,3.33
2019-06-11T08:37:50.961Z,3.17
2019-06-11T08:40:23.544Z,3.50
2019-06-11T08:42:51.437Z,3.10
2019-06-11T08:45:23.554Z,4.27
2019-06-11T08:47:50.838Z,3.60
2019-06-11T08:50:20.956Z,4.30
2019-06-11T08:52:50.411Z,3.20
2019-06-11T08:55:20.457Z,3.20
2019-06-11T08:57:52.916Z,2.90
2019-06-11T09:00:37.610Z,2.93
2019-06-11T09:02:52.458Z,2.77
2019-06-11T09:05:21.180Z,2.73
2019-06-11T09:07:51.832Z,2.70
2019-06-11T09:10:30.269Z,2.73
2019-06-11T09:12:51.713Z,2.80
2019-06-11T09:15:21.464Z,2.57
2019-06-11T09:17:53.024Z,2.50
2019-06-11T09:20:20.696Z,2.57
2019-06-11T09:22:53.183Z,2.60
2019-06-11T09:25:20.337Z,2.47
2019-06-11T09:27:52.613Z,2.20
2019-06-11T09:30:22.063Z,2.60
2019-06-11T09:32:51.654Z,2.30
2019-06-11T09:35:20.728Z,3.50
2019-06-11T09:37:51.511Z,2.50
2019-06-11T09:40:20.987Z,2.73
2019-06-11T09:42:52.234Z,2.40
2019-06-11T09:45:21.240Z,2.13
2019-06-11T09:47:59.681Z,2.37
2019-06-11T09:50:21.348Z,2.40
2019-06-11T09:52:53.710Z,2.53
2019-06-11T09:55:21.007Z,2.40
2019-06-11T09:57:56.796Z,1.93
2019-06-11T10:00:22.987Z,1.87
2019-06-11T10:02:53.690Z,2.00
2019-06-11T10:05:22.127Z,1.53
2019-06-11T10:07:53.947Z,1.90
2019-06-11T10:10:37.288Z,2.20
2019-06-11T10:12:52.991Z,1.83
2019-06-11T10:15:22.000Z,2.10
2019-06-11T10:17:50.822Z,1.93
2019-06-11T10:20:20.860Z,2.07
2019-06-11T10:22:55.228Z,2.00
2019-06-11T10:25:20.911Z,2.30
2019-06-11T10:27:51.706Z,1.80
2019-06-11T10:30:21.109Z,1.83
2019-06-11T10:32:52.496Z,2.13
2019-06-11T10:35:20.292Z,1.53
2019-06-11T10:37:51.210Z,1.50
2019-06-11T10:40:21.030Z,1.77
2019-06-11T10:42:51.592Z,1.93
2019-06-11T10:45:20.990Z,1.97
2019-06-11T10:47:51.522Z,2.10
2019-06-11T10:50:21.462Z,1.87
2019-06-11T10:52:54.781Z,1.77
2019-06-11T10:55:20.832Z,1.40
2019-06-11T10:57:52.144Z,1.20
2019-06-11T11:00:21.266Z,1.80
2019-06-11T11:02:52.500Z,1.30
2019-06-11T11:05:20.981Z,1.40
2019-06-11T11:07:52.376Z,1.50
2019-06-11T11:10:20.877Z,1.63
2019-06-11T11:12:52.200Z,1.60
2019-06-11T11:15:20.301Z,1.60
2019-06-11T11:17:49.695Z,1.63
2019-06-11T11:20:21.030Z,1.80
2019-06-11T11:22:50.768Z,1.60
2019-06-11T11:25:20.267Z,1.40
2019-06-11T11:28:00.609Z,1.87
2019-06-11T11:30:19.773Z,2.07
2019-06-11T11:32:51.065Z,1.80
2019-06-11T11:35:21.035Z,2.13
2019-06-11T11:37:52.491Z,2.07
2019-06-11T11:40:34.907Z,2.27
2019-06-11T11:43:04.758Z,2.27
2019-06-11T11:45:33.713Z,2.10
2019-06-11T11:48:03.457Z,1.80
2019-06-11T11:50:33.804Z,2.67
2019-06-11T11:53:04.254Z,2.03
2019-06-11T11:55:34.763Z,1.93
2019-06-11T11:58:04.499Z,2.00
2019-06-11T12:00:37.577Z,1.93
2019-06-11T12:03:06.303Z,1.97
2019-06-11T12:05:34.923Z,2.20
2019-06-11T12:08:03.697Z,1.83
2019-06-11T12:10:32.337Z,2.33
2019-06-11T12:13:06.042Z,2.03
2019-06-11T12:15:31.436Z,2.20
2019-06-11T12:18:02.316Z,2.00
2019-06-11T12:20:31.650Z,2.73
2019-06-11T12:23:07.911Z,2.07
2019-06-11T12:25:37.230Z,1.97
2019-06-11T12:28:04.533Z,2.30
2019-06-11T12:30:31.841Z,2.70
2019-06-11T12:33:00.454Z,1.83
2019-06-11T12:35:31.357Z,2.00
2019-06-11T12:38:01.816Z,1.80
2019-06-11T12:40:32.324Z,2.17
2019-06-11T12:43:22.517Z,2.10
2019-06-11T12:45:31.385Z,1.87
2019-06-11T12:48:02.869Z,2.10
2019-06-11T12:50:31.666Z,1.67
2019-06-11T12:53:06.700Z,1.90
2019-06-11T12:55:31.026Z,2.20
2019-06-11T12:58:04.239Z,1.63
2019-06-11T13:00:31.287Z,1.67
2019-06-11T13:03:02.782Z,1.60
2019-06-11T13:05:31.413Z,1.90
2019-06-11T13:08:06.055Z,2.20
2019-06-11T13:10:32.434Z,1.80
2019-06-11T13:13:05.741Z,1.90
2019-06-11T13:15:31.803Z,1.50
2019-06-11T13:18:02.683Z,1.80
2019-06-11T13:20:30.866Z,1.97
2019-06-11T13:23:01.353Z,1.77
2019-06-11T13:25:30.032Z,2.30
2019-06-11T13:28:01.921Z,1.60
2019-06-11T13:30:31.590Z,2.00
2019-06-11T13:33:03.063Z,1.83
2019-06-11T13:35:30.459Z,1.60
2019-06-11T13:38:07.479Z,1.40
2019-06-11T13:40:31.075Z,1.83
2019-06-11T13:43:03.056Z,1.60
2019-06-11T13:45:32.764Z,2.00
2019-06-11T13:48:04.611Z,1.60
2019-06-11T13:50:31.769Z,1.50
2019-06-11T13:53:00.815Z,1.70
2019-06-11T13:55:31.254Z,1.80
2019-06-11T13:58:01.477Z,1.63
2019-06-11T14:00:30.955Z,1.63
2019-06-11T14:03:05.511Z,1.60
2019-06-11T14:05:32.025Z,1.37
2019-06-11T14:08:03.370Z,1.40
2019-06-11T14:10:34.634Z,1.90
2019-06-11T14:13:04.163Z,1.67
2019-06-11T14:15:31.930Z,1.50
2019-06-11T14:18:05.338Z,1.60
2019-06-11T14:20:31.801Z,1.37
2019-06-11T14:23:03.763Z,1.30
2019-06-11T14:25:31.776Z,1.80
2019-06-11T14:28:05.285Z,1.90
2019-06-11T14:30:32.398Z,1.93
2019-06-11T14:33:05.053Z,1.80
2019-06-11T14:35:35.458Z,1.80
2019-06-11T14:38:11.053Z,1.23
2019-06-11T14:40:41.856Z,1.50
2019-06-11T14:43:12.147Z,1.50
2019-06-11T14:45:41.959Z,1.30
2019-06-11T14:48:11.232Z,1.93
2019-06-11T14:50:40.367Z,1.60
2019-06-11T14:53:11.292Z,1.43
2019-06-11T14:55:40.612Z,1.60
2019-06-11T14:58:11.426Z,1.60
2019-06-11T15:00:41.663Z,1.70
2019-06-11T15:03:13.533Z,1.70
2019-06-11T15:05:42.082Z,1.90
2019-06-11T15:08:14.280Z,1.33
2019-06-11T15:10:41.457Z,1.73
2019-06-11T15:13:12.406Z,1.20
2019-06-11T15:15:41.620Z,1.97
2019-06-11T15:18:15.861Z,1.80
2019-06-11T15:20:48.767Z,1.67
2019-06-11T15:23:12.819Z,2.43
2019-06-11T15:25:41.992Z,1.67
2019-06-11T15:28:14.293Z,1.30
2019-06-11T15:30:41.173Z,1.40
2019-06-11T15:33:13.532Z,1.40
2019-06-11T15:35:42.736Z,2.13
2019-06-11T15:38:16.858Z,1.67
2019-06-11T15:40:41.077Z,1.63
2019-06-11T15:43:14.303Z,1.77
2019-06-11T15:45:43.985Z,1.50
2019-06-11T15:48:14.876Z,1.13
2019-06-11T15:50:42.615Z,1.23
2019-06-11T15:53:13.895Z,1.80
2019-06-11T15:55:42.322Z,1.23
2019-06-11T15:58:11.667Z,1.50
2019-06-11T16:00:42.194Z,1.87
2019-06-11T16:03:12.930Z,1.50
2019-06-11T16:05:41.956Z,1.40
2019-06-11T16:08:13.067Z,1.40
2019-06-11T16:10:41.633Z,1.30
2019-06-11T16:13:16.664Z,1.60
2019-06-11T16:15:47.149Z,1.30
2019-06-11T16:18:15.012Z,1.20
2019-06-11T16:20:41.869Z,2.60
2019-06-11T16:23:13.086Z,1.60
2019-06-11T16:25:40.973Z,1.70
2019-06-11T16:28:13.482Z,1.33
2019-06-11T16:30:40.087Z,1.20
2019-06-11T16:33:12.491Z,1.40
2019-06-11T16:35:40.696Z,1.23
2019-06-11T16:38:10.882Z,2.27
2019-06-11T16:40:41.245Z,1.27
2019-06-11T16:43:13.632Z,1.43
2019-06-11T16:45:56.822Z,1.87
2019-06-11T16:48:13.564Z,1.50
2019-06-11T16:50:41.189Z,1.70
2019-06-11T16:53:13.154Z,1.23
2019-06-11T16:55:40.604Z,1.27
2019-06-11T16:58:09.770Z,1.20
2019-06-11T17:00:41.059Z,1.47
2019-06-11T17:03:13.725Z,1.43
2019-06-11T17:05:41.107Z,1.50
2019-06-11T17:08:13.296Z,1.40
2019-06-11T17:10:40.967Z,1.20
2019-06-11T17:13:12.288Z,1.30
2019-06-11T17:15:43.750Z,1.30
2019-06-11T17:18:14.249Z,1.50
2019-06-11T17:20:41.337Z,1.13
2019-06-11T17:23:10.987Z,1.43
2019-06-11T17:25:40.694Z,1.40
2019-06-11T17:28:11.503Z,1.50
2019-06-11T17:30:39.829Z,1.20
2019-06-11T17:33:10.688Z,1.40
2019-06-11T17:35:41.147Z,1.80
2019-06-11T17:38:10.656Z,1.53
2019-06-11T17:40:40.719Z,1.50
2019-06-11T17:43:09.807Z,1.53
2019-06-11T17:45:41.337Z,1.27
2019-06-11T17:48:13.248Z,1.40
2019-06-11T17:50:41.169Z,1.90
2019-06-11T17:53:14.232Z,1.80
2019-06-11T17:55:44.307Z,2.00
2019-06-11T17:58:14.082Z,1.50
2019-06-11T18:00:42.862Z,1.50
2019-06-11T18:03:11.703Z,1.70
2019-06-11T18:05:42.119Z,1.60
2019-06-11T18:08:11.731Z,1.57
2019-06-11T18:10:41.268Z,1.30
2019-06-11T18:13:10.983Z,1.70
2019-06-11T18:15:40.924Z,1.30
2019-06-11T18:18:11.042Z,1.57
2019-06-11T18:20:41.373Z,1.93
2019-06-11T18:23:12.150Z,1.40
2019-06-11T18:25:41.153Z,1.40
2019-06-11T18:28:10.021Z,1.90
2019-06-11T18:30:41.604Z,1.53
2019-06-11T18:33:11.219Z,1.90
2019-06-11T18:35:40.570Z,1.73
2019-06-11T18:38:09.710Z,2.03
2019-06-11T18:40:41.027Z,1.87
2019-06-11T18:43:10.688Z,1.90
2019-06-11T18:45:40.988Z,2.00
2019-06-11T18:48:10.167Z,1.80
2019-06-11T18:50:40.492Z,1.50
2019-06-11T18:53:10.686Z,1.57
2019-06-11T18:55:41.519Z,2.00
2019-06-11T18:58:11.469Z,1.60
2019-06-11T19:00:40.752Z,2.00
2019-06-11T19:03:11.554Z,1.70
2019-06-11T19:05:40.566Z,2.30
2019-06-11T19:08:11.861Z,1.90
2019-06-11T19:10:41.297Z,1.90
2019-06-11T19:13:11.416Z,1.57
2019-06-11T19:15:40.538Z,1.83
2019-06-11T19:18:10.447Z,1.80
2019-06-11T19:20:39.511Z,1.67
2019-06-11T19:23:11.045Z,1.80
2019-06-11T19:25:40.218Z,1.63
2019-06-11T19:28:14.117Z,1.73
2019-06-11T19:30:41.093Z,1.77
2019-06-11T19:33:10.861Z,1.43
2019-06-11T19:35:40.322Z,1.70
2019-06-11T19:38:11.656Z,1.73
2019-06-11T19:40:41.891Z,2.20
2019-06-11T19:43:10.725Z,1.97
2019-06-11T19:45:42.604Z,2.10
2019-06-11T19:48:10.799Z,1.83
2019-06-11T19:50:40.499Z,2.03
2019-06-11T19:53:10.362Z,1.70
2019-06-11T19:55:41.079Z,1.77
2019-06-11T19:58:11.199Z,2.03
2019-06-11T20:00:41.457Z,2.27
2019-06-11T20:03:10.627Z,2.47
2019-06-11T20:05:39.798Z,2.03
2019-06-11T20:08:10.760Z,2.20
2019-06-11T20:10:44.618Z,3.00
2019-06-11T20:13:10.421Z,2.20
2019-06-11T20:15:41.135Z,3.47
2019-06-11T20:18:10.805Z,2.67
2019-06-11T20:20:40.725Z,2.17
2019-06-11T20:25:43.179Z,1.90
2019-06-11T20:28:12.084Z,2.00
2019-06-11T20:30:41.002Z,2.53
2019-06-11T20:33:10.912Z,2.40
2019-06-11T20:35:41.632Z,2.67
2019-06-11T20:38:10.553Z,2.60
2019-06-11T20:40:42.005Z,2.90
2019-06-11T20:43:10.974Z,2.60
2019-06-11T20:45:44.330Z,2.50
2019-06-11T20:48:22.148Z,2.60
2019-06-11T20:50:41.398Z,2.37
2019-06-11T20:53:10.975Z,2.80
2019-06-11T20:55:42.912Z,3.10
2019-06-11T20:58:10.478Z,2.77
2019-06-11T21:00:44.312Z,2.60
2019-06-11T21:03:10.646Z,2.17
2019-06-11T21:05:41.766Z,2.60
2019-06-11T21:08:11.275Z,2.80
2019-06-11T21:10:43.500Z,2.47
2019-06-11T21:13:11.070Z,2.67
2019-06-11T21:15:44.451Z,2.80
2019-06-11T21:18:11.139Z,2.60
2019-06-11T21:20:41.473Z,3.47
2019-06-11T21:23:10.825Z,3.30
2019-06-11T21:25:41.824Z,2.50
2019-06-11T21:28:10.957Z,2.63
2019-06-11T21:30:42.623Z,2.87
2019-06-11T21:33:10.923Z,3.03
2019-06-11T21:35:43.340Z,2.40
2019-06-11T21:38:10.844Z,2.73
2019-06-11T21:40:39.768Z,2.60
2019-06-11T21:43:11.531Z,2.33
2019-06-11T21:45:41.696Z,2.50
2019-06-11T21:48:11.874Z,2.60
2019-06-11T21:50:44.208Z,2.50
2019-06-11T21:53:11.153Z,2.70
2019-06-11T21:55:42.441Z,2.73
2019-06-11T21:58:10.601Z,2.90
2019-06-11T22:00:43.943Z,2.97
2019-06-11T22:03:11.811Z,2.60
2019-06-11T22:05:40.536Z,3.50
2019-06-11T22:08:10.433Z,3.00
2019-06-11T22:10:41.634Z,2.90
2019-06-11T22:13:10.696Z,3.47
2019-06-11T22:15:41.857Z,3.00
2019-06-11T22:18:10.460Z,3.07
2019-06-11T22:20:41.848Z,2.20
2019-06-11T22:23:15.691Z,3.17
2019-06-11T22:25:45.603Z,4.40
2019-06-11T22:28:14.412Z,2.83
2019-06-11T22:30:45.103Z,3.10
2019-06-11T22:33:13.905Z,2.83
2019-06-11T22:35:45.687Z,2.43
2019-06-11T22:38:13.438Z,3.23
2019-06-11T22:40:44.232Z,2.67
2019-06-11T22:43:12.723Z,2.90
2019-06-11T22:45:42.805Z,2.90
2019-06-11T22:48:11.600Z,3.10
2019-06-11T22:50:43.089Z,2.57
2019-06-11T22:53:10.868Z,2.77
2019-06-11T22:55:40.397Z,2.50
2019-06-11T22:58:10.814Z,2.60
2019-06-11T23:00:43.363Z,3.10
2019-06-11T23:03:10.925Z,2.97
2019-06-11T23:05:42.488Z,3.43
2019-06-11T23:08:11.115Z,3.43
2019-06-11T23:10:41.130Z,2.63
2019-06-11T23:13:10.410Z,3.30
2019-06-11T23:15:41.060Z,2.80
2019-06-11T23:18:10.470Z,2.80
2019-06-11T23:20:40.195Z,3.03
2019-06-11T23:23:11.213Z,3.00
2019-06-11T23:25:41.094Z,3.20
2019-06-11T23:28:09.650Z,3.43
2019-06-11T23:30:40.326Z,3.37
2019-06-11T23:33:08.870Z,2.93
2019-06-11T23:35:37.452Z,3.20
2019-06-11T23:38:11.404Z,3.70
2019-06-11T23:40:40.209Z,3.00
2019-06-11T23:43:10.165Z,3.60
2019-06-11T23:45:40.436Z,3.20
2019-06-11T23:48:11.236Z,3.50
2019-06-11T23:50:40.001Z,3.97
2019-06-11T23:53:10.388Z,3.57
2019-06-11T23:55:39.177Z,3.70
2019-06-11T23:58:10.020Z,2.90
